sensor_id;sensor_type;location;lat;lon;timestamp;P1;durP1;ratioP1;P2;durP2;ratioP2
51578;SDS011;47998;53.242;6.386;2023-05-10T00:00:33;41.00;;;21.05;;
51578;SDS011;47998;53.242;6.386;2023-05-10T00:02:59;36.50;;;19.85;;
51578;SDS011;47998;53.242;6.386;2023-05-10T00:05:24;40.50;;;22.10;;
51578;SDS011;47998;53.242;6.386;2023-05-10T00:07:50;40.85;;;21.20;;
51578;SDS011;47998;53.242;6.386;2023-05-10T00:10:16;44.60;;;22.33;;
51578;SDS011;47998;53.242;6.386;2023-05-10T00:12:41;46.28;;;22.90;;
51578;SDS011;47998;53.242;6.386;2023-05-10T00:15:07;41.88;;;22.75;;
51578;SDS011;47998;53.242;6.386;2023-05-10T00:17:33;46.15;;;22.35;;
51578;SDS011;47998;53.242;6.386;2023-05-10T00:19:59;41.92;;;21.38;;
51578;SDS011;47998;53.242;6.386;2023-05-10T00:22:25;34.10;;;19.00;;
51578;SDS011;47998;53.242;6.386;2023-05-10T00:24:51;38.35;;;20.77;;
51578;SDS011;47998;53.242;6.386;2023-05-10T00:27:16;37.03;;;20.50;;
51578;SDS011;47998;53.242;6.386;2023-05-10T00:29:42;31.75;;;18.67;;
51578;SDS011;47998;53.242;6.386;2023-05-10T00:32:08;33.25;;;18.65;;
51578;SDS011;47998;53.242;6.386;2023-05-10T00:34:33;28.55;;;16.38;;
51578;SDS011;47998;53.242;6.386;2023-05-10T00:36:59;34.67;;;19.88;;
51578;SDS011;47998;53.242;6.386;2023-05-10T00:39:25;35.70;;;19.23;;
51578;SDS011;47998;53.242;6.386;2023-05-10T00:41:51;26.77;;;17.50;;
51578;SDS011;47998;53.242;6.386;2023-05-10T00:44:17;16.48;;;12.20;;
51578;SDS011;47998;53.242;6.386;2023-05-10T00:46:43;19.38;;;13.90;;
51578;SDS011;47998;53.242;6.386;2023-05-10T00:49:09;16.10;;;12.57;;
51578;SDS011;47998;53.242;6.386;2023-05-10T00:51:36;18.95;;;13.57;;
51578;SDS011;47998;53.242;6.386;2023-05-10T00:54:02;19.40;;;14.18;;
51578;SDS011;47998;53.242;6.386;2023-05-10T00:56:28;20.98;;;14.15;;
51578;SDS011;47998;53.242;6.386;2023-05-10T00:58:55;20.90;;;13.82;;
51578;SDS011;47998;53.242;6.386;2023-05-10T01:01:20;26.88;;;17.67;;
51578;SDS011;47998;53.242;6.386;2023-05-10T01:03:46;26.95;;;15.60;;
51578;SDS011;47998;53.242;6.386;2023-05-10T01:06:13;22.77;;;15.77;;
51578;SDS011;47998;53.242;6.386;2023-05-10T01:08:39;26.65;;;16.83;;
51578;SDS011;47998;53.242;6.386;2023-05-10T01:11:08;27.20;;;16.60;;
51578;SDS011;47998;53.242;6.386;2023-05-10T01:13:37;23.42;;;15.68;;
51578;SDS011;47998;53.242;6.386;2023-05-10T01:16:06;26.35;;;15.95;;
51578;SDS011;47998;53.242;6.386;2023-05-10T01:18:39;39.20;;;19.77;;
51578;SDS011;47998;53.242;6.386;2023-05-10T01:26:59;27.10;;;16.63;;
51578;SDS011;47998;53.242;6.386;2023-05-10T01:32:43;20.27;;;14.07;;
51578;SDS011;47998;53.242;6.386;2023-05-10T01:35:30;17.63;;;12.95;;
51578;SDS011;47998;53.242;6.386;2023-05-10T01:38:15;22.02;;;15.82;;
51578;SDS011;47998;53.242;6.386;2023-05-10T01:43:30;22.30;;;15.43;;
51578;SDS011;47998;53.242;6.386;2023-05-10T01:48:35;21.15;;;15.88;;
51578;SDS011;47998;53.242;6.386;2023-05-10T01:51:11;23.52;;;15.50;;
51578;SDS011;47998;53.242;6.386;2023-05-10T01:53:40;20.70;;;15.20;;
51578;SDS011;47998;53.242;6.386;2023-05-10T01:56:08;16.70;;;12.57;;
51578;SDS011;47998;53.242;6.386;2023-05-10T01:58:35;14.75;;;12.10;;
51578;SDS011;47998;53.242;6.386;2023-05-10T02:01:03;19.05;;;13.65;;
51578;SDS011;47998;53.242;6.386;2023-05-10T02:03:31;17.13;;;14.05;;
51578;SDS011;47998;53.242;6.386;2023-05-10T02:05:59;16.98;;;13.60;;
51578;SDS011;47998;53.242;6.386;2023-05-10T02:08:25;16.58;;;13.23;;
51578;SDS011;47998;53.242;6.386;2023-05-10T02:10:52;19.40;;;14.48;;
51578;SDS011;47998;53.242;6.386;2023-05-10T02:13:20;21.52;;;14.82;;
51578;SDS011;47998;53.242;6.386;2023-05-10T02:15:48;23.00;;;15.63;;
51578;SDS011;47998;53.242;6.386;2023-05-10T02:18:15;27.88;;;18.10;;
51578;SDS011;47998;53.242;6.386;2023-05-10T02:20:43;29.13;;;17.60;;
51578;SDS011;47998;53.242;6.386;2023-05-10T02:23:11;34.70;;;20.25;;
51578;SDS011;47998;53.242;6.386;2023-05-10T02:25:38;32.85;;;18.33;;
51578;SDS011;47998;53.242;6.386;2023-05-10T02:28:05;40.97;;;20.40;;
51578;SDS011;47998;53.242;6.386;2023-05-10T02:30:33;38.30;;;20.88;;
51578;SDS011;47998;53.242;6.386;2023-05-10T02:33:01;46.95;;;24.13;;
51578;SDS011;47998;53.242;6.386;2023-05-10T02:35:28;41.75;;;22.65;;
51578;SDS011;47998;53.242;6.386;2023-05-10T02:37:56;42.92;;;22.63;;
51578;SDS011;47998;53.242;6.386;2023-05-10T02:40:23;47.53;;;24.00;;
51578;SDS011;47998;53.242;6.386;2023-05-10T02:42:50;48.67;;;24.17;;
51578;SDS011;47998;53.242;6.386;2023-05-10T02:45:20;46.90;;;23.30;;
51578;SDS011;47998;53.242;6.386;2023-05-10T02:47:49;56.78;;;26.88;;
51578;SDS011;47998;53.242;6.386;2023-05-10T02:50:15;48.53;;;22.60;;
51578;SDS011;47998;53.242;6.386;2023-05-10T02:52:46;55.72;;;24.30;;
51578;SDS011;47998;53.242;6.386;2023-05-10T02:55:14;70.38;;;27.20;;
51578;SDS011;47998;53.242;6.386;2023-05-10T02:57:57;47.42;;;23.10;;
51578;SDS011;47998;53.242;6.386;2023-05-10T03:00:25;48.25;;;22.58;;
51578;SDS011;47998;53.242;6.386;2023-05-10T03:02:50;46.45;;;21.88;;
51578;SDS011;47998;53.242;6.386;2023-05-10T03:05:17;54.88;;;24.13;;
51578;SDS011;47998;53.242;6.386;2023-05-10T03:07:43;55.50;;;25.58;;
51578;SDS011;47998;53.242;6.386;2023-05-10T03:10:10;58.75;;;25.00;;
51578;SDS011;47998;53.242;6.386;2023-05-10T03:17:56;36.85;;;18.00;;
51578;SDS011;47998;53.242;6.386;2023-05-10T03:20:38;53.50;;;22.05;;
51578;SDS011;47998;53.242;6.386;2023-05-10T03:25:43;35.28;;;17.13;;
51578;SDS011;47998;53.242;6.386;2023-05-10T03:28:12;26.52;;;13.95;;
51578;SDS011;47998;53.242;6.386;2023-05-10T03:30:39;32.22;;;15.85;;
51578;SDS011;47998;53.242;6.386;2023-05-10T03:33:06;28.25;;;14.57;;
51578;SDS011;47998;53.242;6.386;2023-05-10T03:35:32;22.25;;;12.07;;
51578;SDS011;47998;53.242;6.386;2023-05-10T03:37:58;29.67;;;13.32;;
51578;SDS011;47998;53.242;6.386;2023-05-10T03:40:24;23.60;;;14.13;;
51578;SDS011;47998;53.242;6.386;2023-05-10T03:42:51;22.00;;;13.10;;
51578;SDS011;47998;53.242;6.386;2023-05-10T03:45:16;20.42;;;13.70;;
51578;SDS011;47998;53.242;6.386;2023-05-10T03:47:42;22.40;;;12.60;;
51578;SDS011;47998;53.242;6.386;2023-05-10T03:50:08;22.08;;;14.57;;
51578;SDS011;47998;53.242;6.386;2023-05-10T03:52:35;16.52;;;12.15;;
51578;SDS011;47998;53.242;6.386;2023-05-10T03:55:01;17.88;;;13.05;;
51578;SDS011;47998;53.242;6.386;2023-05-10T03:57:28;17.70;;;12.90;;
51578;SDS011;47998;53.242;6.386;2023-05-10T03:59:54;17.67;;;12.77;;
51578;SDS011;47998;53.242;6.386;2023-05-10T04:02:20;16.08;;;11.32;;
51578;SDS011;47998;53.242;6.386;2023-05-10T04:04:45;13.75;;;9.38;;
51578;SDS011;47998;53.242;6.386;2023-05-10T04:07:11;17.33;;;11.88;;
51578;SDS011;47998;53.242;6.386;2023-05-10T04:09:37;16.33;;;13.32;;
51578;SDS011;47998;53.242;6.386;2023-05-10T04:12:02;18.80;;;13.52;;
51578;SDS011;47998;53.242;6.386;2023-05-10T04:14:28;14.55;;;11.55;;
51578;SDS011;47998;53.242;6.386;2023-05-10T04:16:54;19.50;;;14.00;;
51578;SDS011;47998;53.242;6.386;2023-05-10T04:19:20;18.95;;;13.52;;
51578;SDS011;47998;53.242;6.386;2023-05-10T04:21:46;15.30;;;10.80;;
51578;SDS011;47998;53.242;6.386;2023-05-10T04:24:11;18.63;;;13.52;;
51578;SDS011;47998;53.242;6.386;2023-05-10T04:26:37;16.95;;;12.52;;
51578;SDS011;47998;53.242;6.386;2023-05-10T04:29:03;22.30;;;12.95;;
51578;SDS011;47998;53.242;6.386;2023-05-10T04:31:28;22.55;;;14.60;;
51578;SDS011;47998;53.242;6.386;2023-05-10T04:33:54;22.83;;;14.20;;
51578;SDS011;47998;53.242;6.386;2023-05-10T04:36:20;25.30;;;13.15;;
51578;SDS011;47998;53.242;6.386;2023-05-10T04:38:45;21.40;;;13.27;;
51578;SDS011;47998;53.242;6.386;2023-05-10T04:41:14;22.33;;;14.52;;
51578;SDS011;47998;53.242;6.386;2023-05-10T04:43:39;23.73;;;13.88;;
51578;SDS011;47998;53.242;6.386;2023-05-10T04:46:05;30.52;;;17.13;;
51578;SDS011;47998;53.242;6.386;2023-05-10T04:48:32;36.92;;;18.55;;
51578;SDS011;47998;53.242;6.386;2023-05-10T04:50:58;28.60;;;17.15;;
51578;SDS011;47998;53.242;6.386;2023-05-10T04:53:24;28.30;;;17.02;;
51578;SDS011;47998;53.242;6.386;2023-05-10T04:55:49;35.05;;;19.20;;
51578;SDS011;47998;53.242;6.386;2023-05-10T04:58:15;31.73;;;16.17;;
51578;SDS011;47998;53.242;6.386;2023-05-10T05:00:41;31.75;;;17.90;;
51578;SDS011;47998;53.242;6.386;2023-05-10T05:03:07;33.92;;;16.73;;
51578;SDS011;47998;53.242;6.386;2023-05-10T05:05:33;32.55;;;17.17;;
51578;SDS011;47998;53.242;6.386;2023-05-10T05:07:59;27.08;;;16.50;;
51578;SDS011;47998;53.242;6.386;2023-05-10T05:10:24;39.05;;;17.88;;
51578;SDS011;47998;53.242;6.386;2023-05-10T05:12:50;39.40;;;18.55;;
51578;SDS011;47998;53.242;6.386;2023-05-10T05:15:16;30.08;;;14.52;;
51578;SDS011;47998;53.242;6.386;2023-05-10T05:17:42;32.50;;;14.65;;
51578;SDS011;47998;53.242;6.386;2023-05-10T05:20:08;26.58;;;14.88;;
51578;SDS011;47998;53.242;6.386;2023-05-10T05:22:38;37.78;;;15.95;;
51578;SDS011;47998;53.242;6.386;2023-05-10T05:25:04;27.48;;;13.00;;
51578;SDS011;47998;53.242;6.386;2023-05-10T05:27:31;38.30;;;17.33;;
51578;SDS011;47998;53.242;6.386;2023-05-10T05:29:56;29.92;;;13.70;;
51578;SDS011;47998;53.242;6.386;2023-05-10T05:32:22;29.08;;;12.32;;
51578;SDS011;47998;53.242;6.386;2023-05-10T05:34:49;34.28;;;15.40;;
51578;SDS011;47998;53.242;6.386;2023-05-10T05:37:15;25.77;;;12.68;;
51578;SDS011;47998;53.242;6.386;2023-05-10T05:39:42;25.67;;;13.48;;
51578;SDS011;47998;53.242;6.386;2023-05-10T05:42:08;14.35;;;8.07;;
51578;SDS011;47998;53.242;6.386;2023-05-10T05:44:34;13.32;;;7.15;;
51578;SDS011;47998;53.242;6.386;2023-05-10T05:47:00;9.40;;;5.93;;
51578;SDS011;47998;53.242;6.386;2023-05-10T05:49:26;9.93;;;6.55;;
51578;SDS011;47998;53.242;6.386;2023-05-10T05:51:52;9.43;;;4.80;;
51578;SDS011;47998;53.242;6.386;2023-05-10T05:54:17;10.38;;;6.97;;
51578;SDS011;47998;53.242;6.386;2023-05-10T05:56:43;10.70;;;6.88;;
51578;SDS011;47998;53.242;6.386;2023-05-10T05:59:09;10.75;;;7.53;;
51578;SDS011;47998;53.242;6.386;2023-05-10T06:01:35;11.43;;;6.82;;
51578;SDS011;47998;53.242;6.386;2023-05-10T06:04:01;15.52;;;8.77;;
51578;SDS011;47998;53.242;6.386;2023-05-10T06:06:29;19.17;;;9.80;;
51578;SDS011;47998;53.242;6.386;2023-05-10T06:08:55;35.28;;;16.10;;
51578;SDS011;47998;53.242;6.386;2023-05-10T06:11:21;42.55;;;21.42;;
51578;SDS011;47998;53.242;6.386;2023-05-10T06:13:47;47.25;;;23.63;;
51578;SDS011;47998;53.242;6.386;2023-05-10T06:16:12;59.50;;;30.17;;
51578;SDS011;47998;53.242;6.386;2023-05-10T06:18:38;70.38;;;33.03;;
51578;SDS011;47998;53.242;6.386;2023-05-10T06:21:04;81.97;;;36.13;;
51578;SDS011;47998;53.242;6.386;2023-05-10T06:23:30;75.03;;;33.45;;
51578;SDS011;47998;53.242;6.386;2023-05-10T06:25:56;62.20;;;28.85;;
51578;SDS011;47998;53.242;6.386;2023-05-10T06:28:21;51.05;;;25.92;;
51578;SDS011;47998;53.242;6.386;2023-05-10T06:30:47;41.60;;;21.30;;
51578;SDS011;47998;53.242;6.386;2023-05-10T06:33:13;34.88;;;18.00;;
51578;SDS011;47998;53.242;6.386;2023-05-10T06:35:39;26.88;;;16.92;;
51578;SDS011;47998;53.242;6.386;2023-05-10T06:38:05;20.73;;;14.13;;
51578;SDS011;47998;53.242;6.386;2023-05-10T06:40:30;14.77;;;9.77;;
51578;SDS011;47998;53.242;6.386;2023-05-10T06:42:57;21.90;;;14.75;;
51578;SDS011;47998;53.242;6.386;2023-05-10T06:45:23;18.15;;;11.40;;
51578;SDS011;47998;53.242;6.386;2023-05-10T06:47:49;17.73;;;11.98;;
51578;SDS011;47998;53.242;6.386;2023-05-10T06:50:14;17.02;;;11.85;;
51578;SDS011;47998;53.242;6.386;2023-05-10T06:52:40;19.52;;;12.75;;
51578;SDS011;47998;53.242;6.386;2023-05-10T06:55:06;18.10;;;13.23;;
51578;SDS011;47998;53.242;6.386;2023-05-10T06:57:33;21.88;;;13.30;;
51578;SDS011;47998;53.242;6.386;2023-05-10T06:59:59;18.60;;;11.38;;
51578;SDS011;47998;53.242;6.386;2023-05-10T07:02:25;11.80;;;8.40;;
51578;SDS011;47998;53.242;6.386;2023-05-10T07:04:51;16.60;;;11.20;;
51578;SDS011;47998;53.242;6.386;2023-05-10T07:07:17;17.17;;;11.18;;
51578;SDS011;47998;53.242;6.386;2023-05-10T07:09:43;13.00;;;9.48;;
51578;SDS011;47998;53.242;6.386;2023-05-10T07:12:09;10.27;;;7.70;;
51578;SDS011;47998;53.242;6.386;2023-05-10T07:14:35;5.55;;;4.75;;
51578;SDS011;47998;53.242;6.386;2023-05-10T07:17:01;7.82;;;6.95;;
51578;SDS011;47998;53.242;6.386;2023-05-10T07:19:27;7.45;;;6.30;;
51578;SDS011;47998;53.242;6.386;2023-05-10T07:21:54;9.60;;;7.85;;
51578;SDS011;47998;53.242;6.386;2023-05-10T07:24:20;9.68;;;7.15;;
51578;SDS011;47998;53.242;6.386;2023-05-10T07:26:46;11.63;;;9.07;;
51578;SDS011;47998;53.242;6.386;2023-05-10T07:29:11;13.68;;;9.15;;
51578;SDS011;47998;53.242;6.386;2023-05-10T07:31:37;11.40;;;7.35;;
51578;SDS011;47998;53.242;6.386;2023-05-10T07:34:03;9.68;;;7.80;;
51578;SDS011;47998;53.242;6.386;2023-05-10T07:36:29;10.95;;;8.00;;
51578;SDS011;47998;53.242;6.386;2023-05-10T07:38:54;11.95;;;8.23;;
51578;SDS011;47998;53.242;6.386;2023-05-10T07:41:22;14.07;;;8.95;;
51578;SDS011;47998;53.242;6.386;2023-05-10T07:43:48;12.68;;;8.30;;
51578;SDS011;47998;53.242;6.386;2023-05-10T07:46:14;9.95;;;6.45;;
51578;SDS011;47998;53.242;6.386;2023-05-10T07:48:39;11.65;;;7.53;;
51578;SDS011;47998;53.242;6.386;2023-05-10T07:51:05;10.55;;;7.30;;
51578;SDS011;47998;53.242;6.386;2023-05-10T07:53:34;9.07;;;7.07;;
51578;SDS011;47998;53.242;6.386;2023-05-10T07:56:19;11.70;;;8.13;;
51578;SDS011;47998;53.242;6.386;2023-05-10T07:58:57;11.77;;;8.23;;
51578;SDS011;47998;53.242;6.386;2023-05-10T08:01:24;11.18;;;8.85;;
51578;SDS011;47998;53.242;6.386;2023-05-10T08:03:51;9.00;;;7.80;;
51578;SDS011;47998;53.242;6.386;2023-05-10T08:06:18;10.32;;;7.95;;
51578;SDS011;47998;53.242;6.386;2023-05-10T08:08:45;9.48;;;7.57;;
51578;SDS011;47998;53.242;6.386;2023-05-10T08:11:15;10.90;;;8.32;;
51578;SDS011;47998;53.242;6.386;2023-05-10T08:13:46;10.15;;;9.05;;
51578;SDS011;47998;53.242;6.386;2023-05-10T08:16:13;13.70;;;9.52;;
51578;SDS011;47998;53.242;6.386;2023-05-10T08:18:39;13.00;;;9.88;;
51578;SDS011;47998;53.242;6.386;2023-05-10T08:21:05;12.30;;;9.90;;
51578;SDS011;47998;53.242;6.386;2023-05-10T08:23:31;12.60;;;9.88;;
51578;SDS011;47998;53.242;6.386;2023-05-10T08:25:57;11.02;;;7.75;;
51578;SDS011;47998;53.242;6.386;2023-05-10T08:28:25;11.23;;;9.05;;
51578;SDS011;47998;53.242;6.386;2023-05-10T08:30:54;11.27;;;9.50;;
51578;SDS011;47998;53.242;6.386;2023-05-10T08:33:23;10.77;;;9.05;;
51578;SDS011;47998;53.242;6.386;2023-05-10T08:35:50;11.90;;;10.32;;
51578;SDS011;47998;53.242;6.386;2023-05-10T08:38:15;13.65;;;9.32;;
51578;SDS011;47998;53.242;6.386;2023-05-10T08:40:41;11.68;;;9.13;;
51578;SDS011;47998;53.242;6.386;2023-05-10T08:43:10;13.15;;;8.40;;
51578;SDS011;47998;53.242;6.386;2023-05-10T08:45:40;11.88;;;8.05;;
51578;SDS011;47998;53.242;6.386;2023-05-10T08:48:07;8.85;;;7.93;;
51578;SDS011;47998;53.242;6.386;2023-05-10T08:50:36;10.38;;;8.45;;
51578;SDS011;47998;53.242;6.386;2023-05-10T08:53:06;12.75;;;8.70;;
51578;SDS011;47998;53.242;6.386;2023-05-10T08:55:34;10.20;;;8.38;;
51578;SDS011;47998;53.242;6.386;2023-05-10T08:58:07;10.35;;;7.50;;
51578;SDS011;47998;53.242;6.386;2023-05-10T09:00:33;7.90;;;6.80;;
51578;SDS011;47998;53.242;6.386;2023-05-10T09:02:59;12.00;;;8.48;;
51578;SDS011;47998;53.242;6.386;2023-05-10T09:05:28;10.13;;;7.22;;
51578;SDS011;47998;53.242;6.386;2023-05-10T09:07:53;11.43;;;8.48;;
51578;SDS011;47998;53.242;6.386;2023-05-10T09:10:20;11.48;;;8.27;;
51578;SDS011;47998;53.242;6.386;2023-05-10T09:12:46;9.68;;;7.72;;
51578;SDS011;47998;53.242;6.386;2023-05-10T09:15:16;9.23;;;6.53;;
51578;SDS011;47998;53.242;6.386;2023-05-10T09:17:45;8.25;;;6.78;;
51578;SDS011;47998;53.242;6.386;2023-05-10T09:20:12;9.65;;;6.55;;
51578;SDS011;47998;53.242;6.386;2023-05-10T09:22:38;6.40;;;5.35;;
51578;SDS011;47998;53.242;6.386;2023-05-10T09:25:06;8.25;;;5.43;;
51578;SDS011;47998;53.242;6.386;2023-05-10T09:27:33;5.90;;;5.28;;
51578;SDS011;47998;53.242;6.386;2023-05-10T09:29:59;7.90;;;5.03;;
51578;SDS011;47998;53.242;6.386;2023-05-10T09:35:10;5.65;;;5.10;;
51578;SDS011;47998;53.242;6.386;2023-05-10T09:37:39;7.05;;;5.53;;
51578;SDS011;47998;53.242;6.386;2023-05-10T09:40:07;7.25;;;5.28;;
51578;SDS011;47998;53.242;6.386;2023-05-10T09:42:36;7.28;;;5.13;;
51578;SDS011;47998;53.242;6.386;2023-05-10T09:45:04;7.90;;;5.82;;
51578;SDS011;47998;53.242;6.386;2023-05-10T09:47:35;6.80;;;5.13;;
51578;SDS011;47998;53.242;6.386;2023-05-10T09:50:02;7.55;;;5.90;;
51578;SDS011;47998;53.242;6.386;2023-05-10T09:55:13;6.13;;;5.53;;
51578;SDS011;47998;53.242;6.386;2023-05-10T09:57:38;7.47;;;5.65;;
51578;SDS011;47998;53.242;6.386;2023-05-10T10:00:07;8.10;;;6.05;;
51578;SDS011;47998;53.242;6.386;2023-05-10T10:02:35;8.93;;;5.68;;
51578;SDS011;47998;53.242;6.386;2023-05-10T10:05:01;6.50;;;4.53;;
51578;SDS011;47998;53.242;6.386;2023-05-10T10:07:30;5.38;;;4.28;;
51578;SDS011;47998;53.242;6.386;2023-05-10T10:09:57;7.18;;;5.00;;
51578;SDS011;47998;53.242;6.386;2023-05-10T10:12:23;7.35;;;6.28;;
51578;SDS011;47998;53.242;6.386;2023-05-10T10:14:50;9.20;;;6.63;;
51578;SDS011;47998;53.242;6.386;2023-05-10T10:17:16;9.98;;;8.18;;
51578;SDS011;47998;53.242;6.386;2023-05-10T10:19:42;11.57;;;8.73;;
51578;SDS011;47998;53.242;6.386;2023-05-10T10:22:09;8.75;;;7.68;;
51578;SDS011;47998;53.242;6.386;2023-05-10T10:24:38;10.38;;;8.23;;
51578;SDS011;47998;53.242;6.386;2023-05-10T10:35:28;8.82;;;7.07;;
51578;SDS011;47998;53.242;6.386;2023-05-10T10:37:55;9.15;;;6.05;;
51578;SDS011;47998;53.242;6.386;2023-05-10T10:40:26;9.90;;;7.28;;
51578;SDS011;47998;53.242;6.386;2023-05-10T10:42:52;11.38;;;8.73;;
51578;SDS011;47998;53.242;6.386;2023-05-10T10:45:19;9.45;;;8.27;;
51578;SDS011;47998;53.242;6.386;2023-05-10T10:47:46;12.20;;;9.73;;
51578;SDS011;47998;53.242;6.386;2023-05-10T10:50:12;11.75;;;9.10;;
51578;SDS011;47998;53.242;6.386;2023-05-10T10:52:38;11.68;;;8.88;;
51578;SDS011;47998;53.242;6.386;2023-05-10T10:55:09;12.70;;;9.55;;
51578;SDS011;47998;53.242;6.386;2023-05-10T10:57:52;9.35;;;7.28;;
51578;SDS011;47998;53.242;6.386;2023-05-10T11:00:31;11.40;;;8.73;;
51578;SDS011;47998;53.242;6.386;2023-05-10T11:02:58;11.77;;;9.13;;
51578;SDS011;47998;53.242;6.386;2023-05-10T11:07:51;12.88;;;10.10;;
51578;SDS011;47998;53.242;6.386;2023-05-10T11:10:24;11.38;;;9.38;;
51578;SDS011;47998;53.242;6.386;2023-05-10T11:13:03;12.43;;;9.23;;
51578;SDS011;47998;53.242;6.386;2023-05-10T11:15:31;10.15;;;8.60;;
51578;SDS011;47998;53.242;6.386;2023-05-10T11:17:59;12.38;;;9.02;;
51578;SDS011;47998;53.242;6.386;2023-05-10T11:20:28;13.00;;;10.23;;
51578;SDS011;47998;53.242;6.386;2023-05-10T11:23:13;10.68;;;9.57;;
51578;SDS011;47998;53.242;6.386;2023-05-10T11:25:41;11.82;;;9.43;;
51578;SDS011;47998;53.242;6.386;2023-05-10T11:28:08;10.93;;;8.32;;
51578;SDS011;47998;53.242;6.386;2023-05-10T11:30:35;13.00;;;9.57;;
51578;SDS011;47998;53.242;6.386;2023-05-10T11:33:01;14.20;;;10.27;;
51578;SDS011;47998;53.242;6.386;2023-05-10T11:35:27;13.45;;;10.32;;
51578;SDS011;47998;53.242;6.386;2023-05-10T11:37:53;13.23;;;10.48;;
51578;SDS011;47998;53.242;6.386;2023-05-10T11:40:20;16.33;;;11.57;;
51578;SDS011;47998;53.242;6.386;2023-05-10T11:42:48;13.38;;;10.27;;
51578;SDS011;47998;53.242;6.386;2023-05-10T11:45:14;16.25;;;10.45;;
51578;SDS011;47998;53.242;6.386;2023-05-10T11:47:40;13.88;;;11.05;;
51578;SDS011;47998;53.242;6.386;2023-05-10T11:50:08;19.02;;;11.55;;
51578;SDS011;47998;53.242;6.386;2023-05-10T11:52:36;17.10;;;11.18;;
51578;SDS011;47998;53.242;6.386;2023-05-10T11:55:05;20.80;;;12.63;;
51578;SDS011;47998;53.242;6.386;2023-05-10T11:57:31;16.30;;;12.88;;
51578;SDS011;47998;53.242;6.386;2023-05-10T11:59:56;16.13;;;10.60;;
51578;SDS011;47998;53.242;6.386;2023-05-10T12:02:23;16.73;;;11.27;;
51578;SDS011;47998;53.242;6.386;2023-05-10T12:04:49;15.30;;;11.77;;
51578;SDS011;47998;53.242;6.386;2023-05-10T12:07:15;12.77;;;9.43;;
51578;SDS011;47998;53.242;6.386;2023-05-10T12:10:01;12.45;;;9.27;;
51578;SDS011;47998;53.242;6.386;2023-05-10T12:12:42;15.20;;;11.20;;
51578;SDS011;47998;53.242;6.386;2023-05-10T12:17:43;14.57;;;9.73;;
51578;SDS011;47998;53.242;6.386;2023-05-10T12:22:53;13.63;;;8.98;;
51578;SDS011;47998;53.242;6.386;2023-05-10T12:25:24;14.20;;;8.75;;
51578;SDS011;47998;53.242;6.386;2023-05-10T12:27:55;12.43;;;8.90;;
51578;SDS011;47998;53.242;6.386;2023-05-10T12:30:23;11.32;;;8.52;;
51578;SDS011;47998;53.242;6.386;2023-05-10T12:32:50;9.70;;;8.00;;
51578;SDS011;47998;53.242;6.386;2023-05-10T12:35:16;9.88;;;8.75;;
51578;SDS011;47998;53.242;6.386;2023-05-10T12:37:45;9.30;;;7.68;;
51578;SDS011;47998;53.242;6.386;2023-05-10T12:40:11;11.75;;;8.35;;
51578;SDS011;47998;53.242;6.386;2023-05-10T12:42:37;10.90;;;8.23;;
51578;SDS011;47998;53.242;6.386;2023-05-10T12:45:04;9.98;;;8.85;;
51578;SDS011;47998;53.242;6.386;2023-05-10T12:47:31;10.13;;;8.95;;
51578;SDS011;47998;53.242;6.386;2023-05-10T12:49:57;10.82;;;8.93;;
51578;SDS011;47998;53.242;6.386;2023-05-10T12:52:24;12.23;;;8.93;;
51578;SDS011;47998;53.242;6.386;2023-05-10T12:54:51;12.52;;;9.10;;
51578;SDS011;47998;53.242;6.386;2023-05-10T12:57:18;11.43;;;10.13;;
51578;SDS011;47998;53.242;6.386;2023-05-10T12:59:45;12.25;;;9.82;;
51578;SDS011;47998;53.242;6.386;2023-05-10T13:02:11;9.63;;;7.72;;
51578;SDS011;47998;53.242;6.386;2023-05-10T13:04:36;10.18;;;8.40;;
51578;SDS011;47998;53.242;6.386;2023-05-10T13:07:07;9.55;;;7.82;;
51578;SDS011;47998;53.242;6.386;2023-05-10T13:09:34;8.30;;;7.30;;
51578;SDS011;47998;53.242;6.386;2023-05-10T13:12:00;11.85;;;6.93;;
51578;SDS011;47998;53.242;6.386;2023-05-10T13:14:26;8.15;;;6.50;;
51578;SDS011;47998;53.242;6.386;2023-05-10T13:16:52;9.93;;;7.70;;
51578;SDS011;47998;53.242;6.386;2023-05-10T13:19:17;13.52;;;9.20;;
51578;SDS011;47998;53.242;6.386;2023-05-10T13:21:43;11.20;;;8.98;;
51578;SDS011;47998;53.242;6.386;2023-05-10T13:24:10;10.10;;;8.52;;
51578;SDS011;47998;53.242;6.386;2023-05-10T13:26:38;10.93;;;8.57;;
51578;SDS011;47998;53.242;6.386;2023-05-10T13:29:07;12.13;;;9.00;;
51578;SDS011;47998;53.242;6.386;2023-05-10T13:31:33;12.40;;;9.77;;
51578;SDS011;47998;53.242;6.386;2023-05-10T13:33:59;13.40;;;9.82;;
51578;SDS011;47998;53.242;6.386;2023-05-10T13:36:25;13.77;;;10.10;;
51578;SDS011;47998;53.242;6.386;2023-05-10T13:38:51;13.82;;;9.75;;
51578;SDS011;47998;53.242;6.386;2023-05-10T13:41:17;15.13;;;11.32;;
51578;SDS011;47998;53.242;6.386;2023-05-10T13:43:43;14.07;;;10.98;;
51578;SDS011;47998;53.242;6.386;2023-05-10T13:46:08;14.48;;;11.07;;
51578;SDS011;47998;53.242;6.386;2023-05-10T13:48:34;12.55;;;9.60;;
51578;SDS011;47998;53.242;6.386;2023-05-10T13:51:02;14.07;;;11.00;;
51578;SDS011;47998;53.242;6.386;2023-05-10T13:53:27;14.63;;;11.45;;
51578;SDS011;47998;53.242;6.386;2023-05-10T13:55:53;11.70;;;10.25;;
51578;SDS011;47998;53.242;6.386;2023-05-10T13:58:19;12.20;;;9.98;;
51578;SDS011;47998;53.242;6.386;2023-05-10T14:00:45;11.63;;;9.98;;
51578;SDS011;47998;53.242;6.386;2023-05-10T14:03:10;13.20;;;10.45;;
51578;SDS011;47998;53.242;6.386;2023-05-10T14:05:36;12.98;;;10.77;;
51578;SDS011;47998;53.242;6.386;2023-05-10T14:08:02;14.00;;;11.65;;
51578;SDS011;47998;53.242;6.386;2023-05-10T14:10:28;12.05;;;10.63;;
51578;SDS011;47998;53.242;6.386;2023-05-10T14:12:53;12.73;;;11.32;;
51578;SDS011;47998;53.242;6.386;2023-05-10T14:15:19;12.20;;;10.90;;
51578;SDS011;47998;53.242;6.386;2023-05-10T14:17:45;13.15;;;11.50;;
51578;SDS011;47998;53.242;6.386;2023-05-10T14:20:11;12.20;;;10.23;;
51578;SDS011;47998;53.242;6.386;2023-05-10T14:22:37;12.35;;;11.05;;
51578;SDS011;47998;53.242;6.386;2023-05-10T14:25:02;13.52;;;11.63;;
51578;SDS011;47998;53.242;6.386;2023-05-10T14:27:29;14.82;;;11.93;;
51578;SDS011;47998;53.242;6.386;2023-05-10T14:29:55;14.65;;;12.02;;
51578;SDS011;47998;53.242;6.386;2023-05-10T14:32:21;14.68;;;12.48;;
51578;SDS011;47998;53.242;6.386;2023-05-10T14:34:46;15.55;;;12.48;;
51578;SDS011;47998;53.242;6.386;2023-05-10T14:37:13;16.30;;;13.07;;
51578;SDS011;47998;53.242;6.386;2023-05-10T14:39:39;15.20;;;12.40;;
51578;SDS011;47998;53.242;6.386;2023-05-10T14:42:05;13.00;;;11.63;;
51578;SDS011;47998;53.242;6.386;2023-05-10T14:44:30;13.00;;;11.45;;
51578;SDS011;47998;53.242;6.386;2023-05-10T14:46:56;15.95;;;12.00;;
51578;SDS011;47998;53.242;6.386;2023-05-10T14:49:22;11.10;;;9.50;;
51578;SDS011;47998;53.242;6.386;2023-05-10T14:51:50;10.48;;;9.15;;
51578;SDS011;47998;53.242;6.386;2023-05-10T14:54:16;10.57;;;9.05;;
51578;SDS011;47998;53.242;6.386;2023-05-10T14:56:42;10.25;;;9.23;;
51578;SDS011;47998;53.242;6.386;2023-05-10T14:59:07;11.45;;;9.73;;
51578;SDS011;47998;53.242;6.386;2023-05-10T15:01:33;10.07;;;9.02;;
51578;SDS011;47998;53.242;6.386;2023-05-10T15:04:02;12.70;;;9.13;;
51578;SDS011;47998;53.242;6.386;2023-05-10T15:06:32;8.48;;;7.55;;
51578;SDS011;47998;53.242;6.386;2023-05-10T15:08:59;9.93;;;8.25;;
51578;SDS011;47998;53.242;6.386;2023-05-10T15:11:25;9.38;;;6.90;;